Time;durP1;ratioP1;P1;durP2;ratioP2;P2;SDS_P1;SDS_P2;PMS_P1;PMS_P2;Temp;Humidity;BMP_temperature;BMP_pressure;BME280_temperature;BME280_humidity;BME280_pressure;Samples;Min_cycle;Max_cycle;Signal;HPM_P1;HPM_P2
2023/07/16 00:02:04;;;;;;;5.32;2.90;;;20.00;91.40;;;;;;5094354;28;20052;-78
2023/07/16 00:04:31;;;;;;;5.47;3.05;;;19.90;90.90;;;;;;5094281;28;20028;-78
2023/07/16 00:06:56;;;;;;;5.88;3.05;;;19.90;90.90;;;;;;5093210;28;20028;-78
2023/07/16 00:09:22;;;;;;;5.22;2.47;;;19.80;90.20;;;;;;5093446;28;20034;-78
2023/07/16 00:11:47;;;;;;;5.53;2.50;;;19.80;90.20;;;;;;5093056;28;20028;-78
2023/07/16 00:14:13;;;;;;;5.88;2.33;;;19.70;90.10;;;;;;5093351;28;20055;-78
2023/07/16 00:16:39;;;;;;;4.63;2.28;;;19.70;89.70;;;;;;5092656;28;20028;-78
2023/07/16 00:19:04;;;;;;;7.53;3.15;;;19.70;89.10;;;;;;5093136;28;20036;-78
2023/07/16 00:21:30;;;;;;;6.03;2.45;;;19.70;88.70;;;;;;5092970;28;20017;-78
2023/07/16 00:23:56;;;;;;;5.50;2.42;;;19.70;87.30;;;;;;5092949;28;20059;-78
2023/07/16 00:26:21;;;;;;;3.72;2.03;;;19.60;87.30;;;;;;5092855;28;20058;-78
2023/07/16 00:28:47;;;;;;;5.53;2.28;;;19.50;87.70;;;;;;5092901;28;20025;-79
2023/07/16 00:31:13;;;;;;;5.90;2.08;;;19.50;87.70;;;;;;5093800;28;20032;-78
2023/07/16 00:33:39;;;;;;;7.10;2.28;;;19.50;87.40;;;;;;5092724;28;20067;-79
2023/07/16 00:36:04;;;;;;;5.45;2.17;;;19.50;87.60;;;;;;5092838;28;20016;-79
2023/07/16 00:38:31;;;;;;;3.10;1.90;;;19.50;87.40;;;;;;5093708;28;20036;-78
2023/07/16 00:40:56;;;;;;;4.47;1.98;;;19.40;87.10;;;;;;5093622;28;20024;-78
2023/07/16 00:43:22;;;;;;;5.97;2.30;;;19.40;87.30;;;;;;5092781;28;20043;-79
2023/07/16 00:45:49;;;;;;;4.82;2.10;;;19.50;87.40;;;;;;5092623;28;20070;-78
2023/07/16 00:48:14;;;;;;;4.75;2.20;;;19.50;87.00;;;;;;5075724;28;20101;-79
2023/07/16 00:50:41;;;;;;;5.55;2.13;;;19.50;86.80;;;;;;5092374;28;20040;-78
2023/07/16 00:53:07;;;;;;;6.53;2.53;;;19.50;86.90;;;;;;5093489;28;20024;-79
2023/07/16 00:55:34;;;;;;;6.07;2.75;;;19.40;87.10;;;;;;5092518;28;20096;-78
2023/07/16 00:58:05;;;;;;;6.40;2.67;;;19.30;87.60;;;;;;5092438;28;20025;-79
2023/07/16 01:00:35;;;;;;;3.90;2.28;;;19.30;88.10;;;;;;5093642;28;20017;-78
2023/07/16 01:03:06;;;;;;;4.78;2.17;;;19.30;88.30;;;;;;5075772;28;20056;-78
2023/07/16 01:05:51;;;;;;;4.80;2.42;;;19.30;88.50;;;;;;5093429;28;20510;-78
2023/07/16 01:08:35;;;;;;;5.30;2.33;;;19.40;88.50;;;;;;5093331;28;20029;-78
2023/07/16 01:11:03;;;;;;;5.22;2.25;;;19.30;88.40;;;;;;5093465;28;20021;-78
2023/07/16 01:13:29;;;;;;;4.40;2.80;;;19.30;89.20;;;;;;5092255;28;20021;-79
2023/07/16 01:15:55;;;;;;;6.18;2.70;;;19.20;89.40;;;;;;5093436;28;20118;-79
2023/07/16 01:18:20;;;;;;;4.57;2.65;;;19.20;90.00;;;;;;5093254;28;20040;-79
2023/07/16 01:20:46;;;;;;;7.25;2.80;;;19.10;90.10;;;;;;5092163;28;20029;-79
2023/07/16 01:23:31;;;;;;;5.70;2.53;;;19.10;90.20;;;;;;5092272;28;20487;-79
2023/07/16 01:26:31;;;;;;;5.45;2.50;;;19.00;90.30;;;;;;5093379;28;20021;-78
2023/07/16 01:29:09;;;;;;;4.43;2.25;;;19.00;90.50;;;;;;5094033;28;20037;-78
2023/07/16 01:31:34;;;;;;;6.30;2.55;;;19.10;90.60;;;;;;5097508;28;20028;-79
2023/07/16 01:34:03;;;;;;;5.70;2.53;;;19.10;90.60;;;;;;5079374;28;20021;-78
2023/07/16 01:36:31;;;;;;;5.93;2.58;;;19.10;91.00;;;;;;5097128;28;20023;-79
2023/07/16 01:38:57;;;;;;;5.43;2.40;;;19.00;90.70;;;;;;5097141;28;20051;-79
2023/07/16 01:41:24;;;;;;;5.43;2.55;;;19.00;90.80;;;;;;5079444;28;20100;-79
2023/07/16 01:43:50;;;;;;;6.97;2.40;;;19.00;90.90;;;;;;5096302;28;20029;-79
2023/07/16 01:46:16;;;;;;;5.90;2.55;;;18.90;91.00;;;;;;5079259;28;20088;-79
2023/07/16 01:48:41;;;;;;;4.65;2.35;;;18.90;91.00;;;;;;5095861;28;20387;-79
2023/07/16 01:51:07;;;;;;;5.25;2.30;;;18.90;90.60;;;;;;5096001;28;20392;-79
2023/07/16 01:53:33;;;;;;;5.72;2.65;;;19.00;90.90;;;;;;5096826;28;20028;-79
2023/07/16 01:56:00;;;;;;;6.45;2.60;;;18.90;91.00;;;;;;5095905;28;20044;-79
2023/07/16 01:58:26;;;;;;;6.55;3.08;;;18.80;91.20;;;;;;5095689;28;20037;-79
2023/07/16 02:00:51;;;;;;;7.63;2.47;;;18.80;91.30;;;;;;5095823;28;20025;-79
2023/07/16 02:03:17;;;;;;;4.75;2.40;;;18.80;91.60;;;;;;5095739;28;20479;-79
2023/07/16 02:05:43;;;;;;;8.02;2.90;;;18.70;91.70;;;;;;5095603;28;20080;-79
2023/07/16 02:08:08;;;;;;;5.30;2.50;;;18.80;91.70;;;;;;5078765;28;20139;-79
2023/07/16 02:10:35;;;;;;;6.90;2.85;;;18.80;91.60;;;;;;5095662;28;20028;-79
2023/07/16 02:13:01;;;;;;;6.22;2.30;;;18.80;91.70;;;;;;5095656;28;20024;-79
2023/07/16 02:15:27;;;;;;;6.18;2.70;;;18.80;91.70;;;;;;5078594;28;20047;-79
2023/07/16 02:17:52;;;;;;;3.47;2.08;;;18.80;91.60;;;;;;5095469;28;20032;-79
2023/07/16 02:20:18;;;;;;;6.15;2.55;;;18.80;91.50;;;;;;5096402;28;20025;-79
2023/07/16 02:22:44;;;;;;;6.60;2.70;;;18.80;91.50;;;;;;5078600;28;20127;-79
2023/07/16 02:25:09;;;;;;;6.03;2.50;;;18.80;91.40;;;;;;5095444;28;20028;-79
2023/07/16 02:27:35;;;;;;;5.20;2.38;;;18.80;91.30;;;;;;5078405;28;20032;-79
2023/07/16 02:30:00;;;;;;;5.45;2.65;;;18.70;91.50;;;;;;5078561;28;20017;-79
2023/07/16 02:32:26;;;;;;;5.63;2.40;;;18.70;91.90;;;;;;5095113;28;20032;-79
2023/07/16 02:34:51;;;;;;;4.88;2.50;;;18.70;91.70;;;;;;5095040;28;20035;-79
2023/07/16 02:37:17;;;;;;;4.18;2.53;;;18.70;91.70;;;;;;5095129;28;20029;-80
2023/07/16 02:39:46;;;;;;;5.55;2.65;;;18.70;91.80;;;;;;5094688;28;20029;-79
2023/07/16 02:42:11;;;;;;;5.75;2.78;;;18.60;92.00;;;;;;5094996;28;20048;-80
2023/07/16 02:44:44;;;;;;;5.38;2.40;;;18.60;91.90;;;;;;5078321;28;20063;-79
2023/07/16 02:47:13;;;;;;;5.70;2.65;;;18.60;91.80;;;;;;5094845;28;20031;-78
2023/07/16 02:49:39;;;;;;;6.90;2.58;;;18.60;91.70;;;;;;5095593;28;20049;-79
2023/07/16 02:52:06;;;;;;;5.85;2.47;;;18.60;91.80;;;;;;5095793;28;20062;-80
2023/07/16 02:54:32;;;;;;;4.75;2.38;;;18.60;91.80;;;;;;5095709;28;20023;-79
2023/07/16 02:56:58;;;;;;;5.47;2.30;;;18.60;91.80;;;;;;5094803;28;20434;-79
2023/07/16 02:59:24;;;;;;;7.65;2.85;;;18.60;91.80;;;;;;5094676;28;20032;-79
2023/07/16 03:01:50;;;;;;;3.95;2.35;;;18.60;91.80;;;;;;5094777;28;20032;-79
2023/07/16 03:04:16;;;;;;;3.95;2.33;;;18.60;91.80;;;;;;5077667;28;20028;-79
2023/07/16 03:06:42;;;;;;;7.32;2.63;;;18.60;91.80;;;;;;5077747;28;20036;-79
2023/07/16 03:09:07;;;;;;;7.47;2.50;;;18.60;91.60;;;;;;5077749;28;20166;-79
2023/07/16 03:11:33;;;;;;;4.88;2.38;;;18.50;91.70;;;;;;5094462;28;20021;-79
2023/07/16 03:13:58;;;;;;;5.25;2.35;;;18.50;91.70;;;;;;5094253;28;20028;-79
2023/07/16 03:16:24;;;;;;;9.57;2.90;;;18.50;91.60;;;;;;5095250;28;20096;-79
2023/07/16 03:18:50;;;;;;;7.47;2.70;;;18.40;91.80;;;;;;5094417;28;20025;-79
2023/07/16 03:21:15;;;;;;;5.07;2.50;;;18.40;91.80;;;;;;5094333;28;20021;-79
2023/07/16 03:23:41;;;;;;;5.43;2.47;;;18.40;91.80;;;;;;5077433;28;20029;-79
2023/07/16 03:26:06;;;;;;;7.15;2.65;;;18.40;91.80;;;;;;5077571;28;20017;-79
2023/07/16 03:28:32;;;;;;;5.47;3.05;;;18.30;91.80;;;;;;5094043;28;20426;-80
2023/07/16 03:30:58;;;;;;;5.57;3.00;;;18.40;91.70;;;;;;5077525;28;20021;-79
2023/07/16 03:33:24;;;;;;;7.13;2.55;;;18.30;91.70;;;;;;5094203;28;20050;-79
2023/07/16 03:35:50;;;;;;;5.20;2.90;;;18.20;91.80;;;;;;5077263;28;20049;-78
2023/07/16 03:38:16;;;;;;;5.25;2.30;;;18.20;91.80;;;;;;5094987;28;20067;-79
2023/07/16 03:40:49;;;;;;;5.90;2.47;;;18.20;91.70;;;;;;5093833;28;20054;-79
2023/07/16 03:43:15;;;;;;;7.10;2.08;;;18.20;91.60;;;;;;5094714;28;20120;-79
2023/07/16 03:45:41;;;;;;;5.00;2.35;;;18.20;91.30;;;;;;5094810;28;20021;-80
2023/07/16 03:48:07;;;;;;;5.05;2.63;;;18.10;91.10;;;;;;5093741;28;20056;-79
2023/07/16 03:50:33;;;;;;;6.57;2.60;;;18.00;91.00;;;;;;5093219;28;20051;-80
2023/07/16 03:52:59;;;;;;;8.50;2.50;;;17.90;90.80;;;;;;5076469;28;20024;-79
2023/07/16 03:55:25;;;;;;;6.50;2.50;;;17.90;90.70;;;;;;5093668;28;20024;-79
2023/07/16 03:57:51;;;;;;;8.07;2.72;;;17.80;90.60;;;;;;5093613;28;20024;-79
2023/07/16 04:00:16;;;;;;;6.13;2.55;;;17.80;90.40;;;;;;5093714;28;20096;-79
2023/07/16 04:02:42;;;;;;;6.00;2.38;;;17.70;90.40;;;;;;5093375;28;20084;-80
2023/07/16 04:05:08;;;;;;;6.13;2.63;;;17.80;90.40;;;;;;5093543;28;20080;-80
2023/07/16 04:07:34;;;;;;;7.90;2.55;;;17.70;90.00;;;;;;5093403;28;20043;-80
2023/07/16 04:09:59;;;;;;;7.15;2.30;;;17.70;90.00;;;;;;5094277;28;20029;-79
2023/07/16 04:12:25;;;;;;;8.50;2.83;;;17.70;89.90;;;;;;5093507;28;20028;-80
2023/07/16 04:15:00;;;;;;;4.40;2.50;;;17.70;89.90;;;;;;5076838;28;20029;-79
2023/07/16 04:17:26;;;;;;;6.40;2.58;;;17.70;89.70;;;;;;5093349;28;20025;-80
2023/07/16 04:19:52;;;;;;;6.50;3.10;;;17.60;90.10;;;;;;5093211;28;20040;-80
2023/07/16 04:22:18;;;;;;;6.35;2.63;;;17.50;89.60;;;;;;5093102;28;20028;-80
2023/07/16 04:24:43;;;;;;;6.95;2.80;;;17.60;89.60;;;;;;5092988;28;20031;-79
2023/07/16 04:27:09;;;;;;;5.38;2.10;;;17.60;89.40;;;;;;5076206;28;20028;-80
2023/07/16 04:29:35;;;;;;;7.43;3.17;;;17.60;89.00;;;;;;5093091;28;20047;-79
2023/07/16 04:32:01;;;;;;;6.63;3.08;;;17.60;88.80;;;;;;5092914;28;20028;-79
2023/07/16 04:34:27;;;;;;;7.03;3.00;;;17.50;89.50;;;;;;5092935;28;20080;-80
2023/07/16 04:36:53;;;;;;;7.60;2.63;;;17.40;89.00;;;;;;5092787;28;20036;-79
2023/07/16 04:39:18;;;;;;;5.93;2.40;;;17.40;88.70;;;;;;5092917;28;20032;-80
2023/07/16 04:41:44;;;;;;;7.03;2.90;;;17.40;88.90;;;;;;5076188;28;20046;-80
2023/07/16 04:44:10;;;;;;;8.05;2.55;;;17.40;89.00;;;;;;5093913;28;20353;-79
2023/07/16 04:46:35;;;;;;;7.65;2.92;;;17.50;88.80;;;;;;5093633;28;20017;-79
2023/07/16 04:49:01;;;;;;;8.93;2.65;;;17.40;88.30;;;;;;5092590;28;20036;-79
2023/07/16 04:51:27;;;;;;;6.65;2.85;;;17.40;88.40;;;;;;5092725;28;20026;-79
2023/07/16 04:53:53;;;;;;;6.40;2.60;;;17.40;88.40;;;;;;5075785;28;20033;-80
2023/07/16 04:56:18;;;;;;;10.18;3.05;;;17.40;88.50;;;;;;5092582;28;20017;-80
2023/07/16 04:58:44;;;;;;;9.25;3.10;;;17.40;88.40;;;;;;5092543;28;20146;-79
2023/07/16 05:01:10;;;;;;;5.97;3.13;;;17.40;88.20;;;;;;5092624;28;20028;-80
2023/07/16 05:03:36;;;;;;;7.60;3.05;;;17.40;87.50;;;;;;5075900;28;20029;-80
2023/07/16 05:06:02;;;;;;;6.53;2.85;;;17.40;87.90;;;;;;5092668;28;20058;-81
2023/07/16 05:08:28;;;;;;;7.47;2.97;;;17.40;87.90;;;;;;5092530;28;20038;-82
2023/07/16 05:10:54;;;;;;;10.25;3.17;;;17.30;87.90;;;;;;5092745;28;20032;-81
2023/07/16 05:13:20;;;;;;;8.63;2.97;;;17.40;88.30;;;;;;5092571;28;20020;-81
2023/07/16 05:15:46;;;;;;;8.80;3.30;;;17.40;88.10;;;;;;5092606;28;20044;-79
2023/07/16 05:18:11;;;;;;;9.32;3.45;;;17.40;87.70;;;;;;5092480;28;20365;-80
2023/07/16 05:20:37;;;;;;;7.90;3.05;;;17.30;87.50;;;;;;5092509;28;20025;-80
2023/07/16 05:23:03;;;;;;;10.38;3.13;;;17.30;87.90;;;;;;5092489;28;20059;-80
2023/07/16 05:25:28;;;;;;;8.50;2.90;;;17.30;87.70;;;;;;5092600;28;20033;-79
2023/07/16 05:27:54;;;;;;;8.80;3.67;;;17.30;86.90;;;;;;5093189;28;20020;-80
2023/07/16 05:30:20;;;;;;;7.70;3.00;;;17.30;88.10;;;;;;5092189;28;20376;-80
2023/07/16 05:32:45;;;;;;;9.38;3.75;;;17.30;87.10;;;;;;5093200;28;20480;-79
2023/07/16 05:35:11;;;;;;;6.85;3.22;;;17.40;86.80;;;;;;5075448;28;20028;-79
2023/07/16 05:37:37;;;;;;;6.85;3.40;;;17.40;85.80;;;;;;5092182;28;20426;-79
2023/07/16 05:40:03;;;;;;;10.20;3.22;;;17.40;86.00;;;;;;5075352;28;20044;-79
2023/07/16 05:42:29;;;;;;;10.55;3.35;;;17.40;86.20;;;;;;5075438;28;20052;-80
2023/07/16 05:44:55;;;;;;;9.95;3.40;;;17.40;85.80;;;;;;5092180;28;20033;-80
2023/07/16 05:47:21;;;;;;;9.35;3.35;;;17.50;85.50;;;;;;5092098;28;20043;-81
2023/07/16 05:49:46;;;;;;;8.75;3.78;;;17.50;85.10;;;;;;5091841;28;20048;-79
2023/07/16 05:52:12;;;;;;;7.05;3.20;;;17.50;85.30;;;;;;5075333;28;20061;-80
2023/07/16 05:54:38;;;;;;;10.77;3.40;;;17.50;85.20;;;;;;5075196;28;20031;-79
2023/07/16 05:57:04;;;;;;;12.30;4.15;;;17.50;84.90;;;;;;5092021;28;20049;-80
2023/07/16 05:59:30;;;;;;;7.82;4.03;;;17.50;85.40;;;;;;5091778;28;20100;-79
2023/07/16 06:01:57;;;;;;;7.38;3.88;;;17.60;85.40;;;;;;5092112;28;20040;-80
2023/07/16 06:04:23;;;;;;;9.10;4.00;;;17.70;84.90;;;;;;5075393;28;20096;-79
2023/07/16 06:06:49;;;;;;;12.27;4.38;;;17.60;83.10;;;;;;5092745;28;20036;-81
2023/07/16 06:09:14;;;;;;;9.60;3.78;;;17.60;83.90;;;;;;5075226;28;20029;-80
2023/07/16 06:11:40;;;;;;;8.40;4.03;;;17.70;84.00;;;;;;5092691;28;20013;-81
2023/07/16 06:14:05;;;;;;;10.02;3.95;;;17.80;84.50;;;;;;5075281;28;20059;-82
2023/07/16 06:16:31;;;;;;;9.02;4.28;;;17.80;84.50;;;;;;5096548;28;20036;-82
2023/07/16 06:18:57;;;;;;;13.52;4.18;;;17.90;83.90;;;;;;5096428;28;20025;-79
2023/07/16 06:21:22;;;;;;;9.80;4.05;;;17.90;82.80;;;;;;5095410;28;20025;-79
2023/07/16 06:23:48;;;;;;;9.38;3.60;;;18.00;83.20;;;;;;5078466;28;20123;-80
2023/07/16 06:26:13;;;;;;;9.98;3.67;;;18.00;83.40;;;;;;5078662;28;20004;-79
2023/07/16 06:28:39;;;;;;;14.38;3.97;;;18.00;82.90;;;;;;5095124;28;20502;-79
2023/07/16 06:31:06;;;;;;;10.10;3.78;;;18.00;83.30;;;;;;5095148;28;20052;-78
2023/07/16 06:33:31;;;;;;;10.02;3.25;;;18.10;83.70;;;;;;5096026;28;20033;-80
2023/07/16 06:35:57;;;;;;;10.25;3.75;;;18.10;81.60;;;;;;5095244;28;20036;-79
2023/07/16 06:38:22;;;;;;;8.88;3.70;;;18.10;81.20;;;;;;5095113;28;20044;-80
2023/07/16 06:40:49;;;;;;;8.13;4.00;;;18.20;83.10;;;;;;5078407;28;20023;-80
2023/07/16 06:43:16;;;;;;;12.32;4.30;;;18.20;82.70;;;;;;5096090;28;20032;-81
2023/07/16 06:45:42;;;;;;;9.93;3.67;;;18.30;83.00;;;;;;5095966;28;20036;-80
2023/07/16 06:48:09;;;;;;;12.82;4.65;;;18.40;82.90;;;;;;5094823;28;20075;-80
2023/07/16 06:50:34;;;;;;;9.88;3.90;;;18.40;83.00;;;;;;5094849;28;20044;-76
2023/07/16 06:53:00;;;;;;;9.63;4.00;;;18.40;81.50;;;;;;5095839;28;20044;-78
2023/07/16 06:55:26;;;;;;;9.27;3.72;;;18.30;81.10;;;;;;5095761;28;20031;-78
2023/07/16 06:57:52;;;;;;;7.43;3.50;;;18.30;82.20;;;;;;5094909;28;20025;-81
2023/07/16 07:00:17;;;;;;;9.60;3.60;;;18.30;82.10;;;;;;5094651;28;20041;-80
2023/07/16 07:02:43;;;;;;;11.77;3.85;;;18.30;80.90;;;;;;5095033;28;20048;-82
2023/07/16 07:05:09;;;;;;;8.20;4.18;;;18.40;82.20;;;;;;5094735;28;20029;-83
2023/07/16 07:07:34;;;;;;;7.40;3.33;;;18.40;82.50;;;;;;5094602;28;20042;-83
2023/07/16 07:10:00;;;;;;;11.85;4.65;;;18.50;81.90;;;;;;5094628;28;20097;-81
2023/07/16 07:12:26;;;;;;;8.88;3.63;;;18.50;82.20;;;;;;5094515;28;20024;-82
2023/07/16 07:14:52;;;;;;;9.30;4.07;;;18.60;81.30;;;;;;5077775;28;20024;-80
2023/07/16 07:17:17;;;;;;;9.48;4.00;;;18.60;82.10;;;;;;5077709;28;20051;-82
2023/07/16 07:19:43;;;;;;;9.98;4.32;;;18.60;80.30;;;;;;5094494;28;20032;-83
2023/07/16 07:22:09;;;;;;;5.78;3.75;;;18.70;81.90;;;;;;5077726;28;20032;-82
2023/07/16 07:24:35;;;;;;;10.75;3.83;;;18.70;80.70;;;;;;5094203;28;20033;-82
2023/07/16 07:27:00;;;;;;;15.13;4.55;;;18.90;81.40;;;;;;5076593;28;20039;-81
2023/07/16 07:29:26;;;;;;;11.10;4.15;;;18.90;81.80;;;;;;5094409;28;20051;-82
2023/07/16 07:31:52;;;;;;;7.50;4.18;;;19.00;81.80;;;;;;5094125;28;20035;-81
2023/07/16 07:34:18;;;;;;;8.65;4.13;;;19.00;80.40;;;;;;5077434;28;20025;-83
2023/07/16 07:36:44;;;;;;;9.50;4.55;;;19.00;80.80;;;;;;5094089;28;20030;-82
2023/07/16 07:39:10;;;;;;;8.23;4.05;;;19.10;80.50;;;;;;5094746;28;20063;-79
2023/07/16 07:41:36;;;;;;;9.55;4.20;;;19.20;81.00;;;;;;5093796;28;20029;-80
2023/07/16 07:44:02;;;;;;;11.02;3.95;;;19.20;80.00;;;;;;5076937;28;20030;-79
2023/07/16 07:46:27;;;;;;;10.93;4.63;;;19.20;78.70;;;;;;5094654;28;20029;-80
2023/07/16 07:48:53;;;;;;;9.55;4.35;;;19.20;79.80;;;;;;5076723;28;20025;-80
2023/07/16 07:51:20;;;;;;;7.72;3.72;;;19.30;81.00;;;;;;5093576;28;20036;-79
2023/07/16 07:53:46;;;;;;;7.32;3.88;;;19.30;79.10;;;;;;5093571;28;20033;-80
2023/07/16 07:56:11;;;;;;;10.60;4.18;;;19.40;80.60;;;;;;5093338;28;20548;-80
2023/07/16 07:58:37;;;;;;;10.10;4.07;;;19.50;81.30;;;;;;5094396;28;20051;-80
2023/07/16 08:01:06;;;;;;;9.90;4.25;;;19.60;79.40;;;;;;5093401;28;20052;-79
2023/07/16 08:03:32;;;;;;;11.50;4.32;;;19.60;79.30;;;;;;5094245;28;20020;-79
2023/07/16 08:05:58;;;;;;;9.13;4.35;;;19.60;78.30;;;;;;5076554;28;20574;-80
2023/07/16 08:08:23;;;;;;;8.52;4.20;;;19.70;78.00;;;;;;5094323;28;20032;-79
2023/07/16 08:10:49;;;;;;;11.98;4.00;;;19.70;77.80;;;;;;5093188;28;20103;-80
2023/07/16 08:13:14;;;;;;;10.27;4.28;;;19.70;78.70;;;;;;5076571;28;20032;-80
2023/07/16 08:15:40;;;;;;;9.80;3.60;;;19.70;77.60;;;;;;5093068;28;20024;-80
2023/07/16 08:18:06;;;;;;;7.63;3.72;;;19.60;77.00;;;;;;5076461;28;20028;-79
2023/07/16 08:20:32;;;;;;;7.75;3.85;;;19.60;76.20;;;;;;5093046;28;20047;-80
2023/07/16 08:22:57;;;;;;;12.45;4.22;;;19.60;76.80;;;;;;5092850;28;20086;-79
2023/07/16 08:25:23;;;;;;;8.95;4.07;;;19.60;76.40;;;;;;5093851;28;20033;-79
2023/07/16 08:27:49;;;;;;;10.45;4.07;;;19.70;76.80;;;;;;5076097;28;20028;-81
2023/07/16 08:30:14;;;;;;;8.50;4.03;;;19.70;77.90;;;;;;5092859;28;20032;-81
2023/07/16 08:32:40;;;;;;;10.52;3.85;;;19.80;78.70;;;;;;5092758;28;20533;-81
2023/07/16 08:35:06;;;;;;;10.00;3.70;;;19.90;77.30;;;;;;5076174;28;20036;-82
2023/07/16 08:37:32;;;;;;;9.77;3.58;;;19.90;76.30;;;;;;5092714;28;20031;-79
2023/07/16 08:39:57;;;;;;;11.05;3.88;;;20.00;76.50;;;;;;5092687;28;20025;-77
2023/07/16 08:42:24;;;;;;;7.05;3.35;;;20.00;76.70;;;;;;5092598;28;20037;-78
2023/07/16 08:44:52;;;;;;;10.68;3.85;;;20.00;76.80;;;;;;5092619;28;20039;-76
2023/07/16 08:47:18;;;;;;;7.85;3.80;;;20.10;76.70;;;;;;5093460;28;20050;-77
2023/07/16 08:49:56;;;;;;;11.23;3.85;;;20.30;79.20;;;;;;5093341;28;20040;-77
2023/07/16 08:52:22;;;;;;;9.05;3.80;;;20.40;75.90;;;;;;5092440;28;20024;-78
2023/07/16 08:54:47;;;;;;;9.23;3.95;;;20.40;76.20;;;;;;5092416;28;20050;-77
2023/07/16 08:57:14;;;;;;;8.10;4.32;;;20.50;76.70;;;;;;5092430;28;20021;-77
2023/07/16 08:59:40;;;;;;;10.15;4.95;;;20.50;75.70;;;;;;5092377;28;20092;-77
2023/07/16 09:02:06;;;;;;;6.72;4.35;;;20.60;76.10;;;;;;5093373;28;20052;-77
2023/07/16 09:04:33;;;;;;;9.65;3.83;;;20.50;74.40;;;;;;5092482;28;20111;-77
2023/07/16 09:06:58;;;;;;;7.60;3.53;;;20.60;75.30;;;;;;5093234;28;20032;-77
2023/07/16 09:09:24;;;;;;;6.15;3.10;;;20.60;73.40;;;;;;5075560;28;20040;-77
2023/07/16 09:11:50;;;;;;;7.85;3.35;;;20.60;74.30;;;;;;5075616;28;20077;-76
2023/07/16 09:14:20;;;;;;;10.10;4.22;;;20.60;75.30;;;;;;5093243;28;20017;-77
2023/07/16 09:16:52;;;;;;;7.47;3.08;;;20.70;75.10;;;;;;5093237;28;20050;-77
2023/07/16 09:19:18;;;;;;;6.72;3.45;;;20.80;73.90;;;;;;5092367;28;20037;-76
2023/07/16 09:21:51;;;;;;;8.98;3.97;;;20.80;74.50;;;;;;5092171;28;20089;-77
2023/07/16 09:24:18;;;;;;;8.88;3.60;;;20.80;75.00;;;;;;5093182;28;20025;-77
2023/07/16 09:26:58;;;;;;;7.35;3.67;;;20.80;75.10;;;;;;5092164;28;20051;-77
2023/07/16 09:29:26;;;;;;;7.78;3.63;;;21.00;75.20;;;;;;5092228;28;20084;-77
2023/07/16 09:32:00;;;;;;;10.07;3.10;;;20.90;71.90;;;;;;5093083;28;20104;-77
2023/07/16 09:34:29;;;;;;;8.95;3.30;;;20.90;72.90;;;;;;5091961;28;20031;-77
2023/07/16 09:36:59;;;;;;;9.90;3.83;;;20.90;73.20;;;;;;5093009;28;20035;-77
2023/07/16 09:39:26;;;;;;;8.40;3.55;;;20.90;73.40;;;;;;5093078;28;20028;-77
2023/07/16 09:41:52;;;;;;;6.57;3.25;;;20.90;73.20;;;;;;5092977;28;20028;-77
2023/07/16 09:44:19;;;;;;;9.45;3.30;;;20.90;72.80;;;;;;5093059;28;20048;-77
2023/07/16 09:46:45;;;;;;;8.23;3.22;;;20.80;73.10;;;;;;5091982;28;20036;-77
2023/07/16 09:49:11;;;;;;;7.50;3.50;;;20.80;72.90;;;;;;5092273;28;20033;-77
2023/07/16 09:51:38;;;;;;;5.65;3.10;;;20.80;72.40;;;;;;5095779;28;20025;-77
2023/07/16 09:54:05;;;;;;;6.50;3.45;;;20.70;72.40;;;;;;5095822;28;20036;-77
2023/07/16 09:56:39;;;;;;;8.52;3.55;;;20.70;72.80;;;;;;5096674;28;20024;-76
2023/07/16 09:59:17;;;;;;;6.10;3.10;;;20.70;73.10;;;;;;5095708;28;20123;-77
2023/07/16 10:01:43;;;;;;;6.60;3.13;;;20.80;73.30;;;;;;5095562;28;20027;-77
2023/07/16 10:04:19;;;;;;;7.28;3.20;;;20.80;73.40;;;;;;5095524;28;20028;-76
2023/07/16 10:06:50;;;;;;;7.82;3.45;;;20.80;71.80;;;;;;5096425;28;20028;-75
2023/07/16 10:09:41;;;;;;;9.05;3.50;;;20.80;72.60;;;;;;5096492;28;20039;-76
2023/07/16 10:12:18;;;;;;;6.35;3.15;;;20.80;72.50;;;;;;5095467;28;20059;-76
2023/07/16 10:14:56;;;;;;;9.55;3.58;;;20.90;73.50;;;;;;5095346;28;20017;-76
2023/07/16 10:17:24;;;;;;;7.00;3.00;;;20.90;72.80;;;;;;5095490;28;20032;-76
2023/07/16 10:19:49;;;;;;;6.25;3.45;;;20.90;71.80;;;;;;5096315;28;20034;-77
2023/07/16 10:22:15;;;;;;;8.40;3.22;;;21.00;73.10;;;;;;5095234;28;20028;-77
2023/07/16 10:24:41;;;;;;;17.23;3.65;;;21.10;73.10;;;;;;5095262;28;20028;-76
2023/07/16 10:27:07;;;;;;;6.55;2.83;;;21.10;71.80;;;;;;5095276;28;20105;-77
2023/07/16 10:29:33;;;;;;;7.80;2.97;;;21.00;70.70;;;;;;5096154;28;20074;-76
2023/07/16 10:31:58;;;;;;;8.02;3.28;;;20.90;71.90;;;;;;5095089;28;20035;-76
2023/07/16 10:34:26;;;;;;;7.10;2.88;;;20.90;71.90;;;;;;5094955;28;20024;-76
2023/07/16 10:36:52;;;;;;;7.90;2.88;;;20.90;71.60;;;;;;5095038;28;20066;-76
2023/07/16 10:39:17;;;;;;;7.72;2.78;;;20.90;72.10;;;;;;5094981;28;20029;-76
2023/07/16 10:41:43;;;;;;;5.80;2.70;;;20.90;71.60;;;;;;5095167;28;20043;-77
2023/07/16 10:44:09;;;;;;;7.45;3.47;;;20.90;71.90;;;;;;5094944;28;20028;-76
2023/07/16 10:46:36;;;;;;;5.88;2.60;;;20.90;71.10;;;;;;5095864;28;20044;-76
2023/07/16 10:49:02;;;;;;;5.95;2.90;;;20.90;72.30;;;;;;5094683;28;20032;-77
2023/07/16 10:51:28;;;;;;;7.10;2.65;;;21.00;72.10;;;;;;5095746;28;20028;-76
2023/07/16 10:53:57;;;;;;;5.80;3.05;;;21.00;70.50;;;;;;5095691;28;20437;-77
2023/07/16 10:56:22;;;;;;;7.45;2.97;;;21.10;70.50;;;;;;5077891;28;20100;-76
2023/07/16 10:58:48;;;;;;;5.15;2.50;;;21.20;71.70;;;;;;5094803;28;20059;-77
2023/07/16 11:01:15;;;;;;;5.63;2.28;;;21.30;72.50;;;;;;5094392;28;20349;-77
2023/07/16 11:03:41;;;;;;;8.40;3.08;;;21.30;70.60;;;;;;5077850;28;20020;-77
2023/07/16 11:06:11;;;;;;;7.15;3.33;;;21.30;70.70;;;;;;5094609;28;20038;-77
2023/07/16 11:08:37;;;;;;;10.68;3.05;;;21.30;69.60;;;;;;5094628;28;20384;-76
2023/07/16 11:11:03;;;;;;;6.07;2.90;;;21.40;72.30;;;;;;5095417;28;20024;-77
2023/07/16 11:13:34;;;;;;;6.28;2.88;;;21.70;71.90;;;;;;5077627;28;20021;-76
2023/07/16 11:16:10;;;;;;;7.53;3.10;;;21.90;73.00;;;;;;5094282;28;20368;-77
2023/07/16 11:18:36;;;;;;;6.45;2.95;;;22.00;68.90;;;;;;5095177;28;20056;-76
2023/07/16 11:21:02;;;;;;;5.55;3.22;;;21.90;70.20;;;;;;5094167;28;20368;-76
2023/07/16 11:23:27;;;;;;;8.10;2.85;;;22.10;71.70;;;;;;5095135;28;20379;-77
2023/07/16 11:25:53;;;;;;;6.72;3.47;;;22.20;68.40;;;;;;5094134;28;20025;-76
2023/07/16 11:28:19;;;;;;;7.45;3.10;;;22.20;68.70;;;;;;5077191;28;20036;-76
2023/07/16 11:30:45;;;;;;;6.50;2.97;;;22.10;67.40;;;;;;5094962;28;20031;-76
2023/07/16 11:33:11;;;;;;;6.25;3.13;;;21.90;68.60;;;;;;5093906;28;20033;-76
2023/07/16 11:35:38;;;;;;;12.65;2.85;;;21.80;68.50;;;;;;5093816;28;20027;-76
2023/07/16 11:38:07;;;;;;;8.43;3.90;;;21.70;69.80;;;;;;5094856;28;20028;-77
2023/07/16 11:40:37;;;;;;;6.18;2.88;;;21.70;69.60;;;;;;5093892;28;20056;-76
2023/07/16 11:43:12;;;;;;;5.70;2.75;;;21.70;69.50;;;;;;5093949;28;20082;-76
2023/07/16 11:45:38;;;;;;;9.98;3.17;;;21.60;69.20;;;;;;5094637;28;20058;-76
2023/07/16 11:48:04;;;;;;;9.23;3.25;;;21.60;69.10;;;;;;5094688;28;20044;-76
2023/07/16 11:50:31;;;;;;;6.82;2.95;;;21.50;69.30;;;;;;5093425;28;20123;-76
2023/07/16 11:53:03;;;;;;;8.75;3.10;;;21.50;69.70;;;;;;5094506;28;20021;-76
2023/07/16 11:55:29;;;;;;;5.80;3.03;;;21.60;70.30;;;;;;5094479;28;20013;-76
2023/07/16 11:57:56;;;;;;;6.95;2.65;;;21.60;69.40;;;;;;5093363;28;20117;-77
2023/07/16 12:00:22;;;;;;;7.85;3.13;;;21.70;68.90;;;;;;5093364;28;20029;-76
2023/07/16 12:02:51;;;;;;;6.90;3.10;;;21.60;70.00;;;;;;5076614;28;20028;-77
2023/07/16 12:05:18;;;;;;;6.57;3.08;;;21.60;69.60;;;;;;5093378;28;20020;-77
2023/07/16 12:07:43;;;;;;;9.05;3.35;;;21.80;70.10;;;;;;5093231;28;20036;-77
2023/07/16 12:10:09;;;;;;;7.85;3.20;;;21.80;68.40;;;;;;5076586;28;20027;-77
2023/07/16 12:12:38;;;;;;;5.70;2.90;;;21.80;69.20;;;;;;5092717;28;20032;-77
2023/07/16 12:15:07;;;;;;;7.35;3.20;;;21.90;70.10;;;;;;5093159;28;20020;-76
2023/07/16 12:17:33;;;;;;;6.85;2.95;;;21.90;71.30;;;;;;5093964;28;20031;-77
2023/07/16 12:19:59;;;;;;;6.20;3.20;;;21.80;69.70;;;;;;5076290;28;20032;-77
2023/07/16 12:22:25;;;;;;;8.10;3.13;;;21.80;69.80;;;;;;5093981;28;20087;-76
2023/07/16 12:24:51;;;;;;;7.10;2.90;;;21.90;71.50;;;;;;5092893;28;20025;-76
2023/07/16 12:27:17;;;;;;;7.03;2.90;;;22.10;72.20;;;;;;5092732;28;20029;-76
2023/07/16 12:29:43;;;;;;;8.05;3.25;;;22.20;71.10;;;;;;5092861;28;20020;-76
2023/07/16 12:32:09;;;;;;;5.43;2.78;;;22.30;71.70;;;;;;5092831;28;20046;-76
2023/07/16 12:34:35;;;;;;;9.35;3.97;;;22.30;68.80;;;;;;5092691;28;20020;-76
2023/07/16 12:37:01;;;;;;;5.13;3.17;;;22.20;69.20;;;;;;5092640;28;20107;-76
2023/07/16 12:39:26;;;;;;;7.38;3.00;;;22.10;68.60;;;;;;5092707;28;20036;-78
2023/07/16 12:41:52;;;;;;;6.13;2.75;;;22.00;69.10;;;;;;5076086;28;20032;-77
2023/07/16 12:44:18;;;;;;;5.63;3.10;;;21.90;69.80;;;;;;5092634;28;20484;-78